Time;durP1;ratioP1;P1;durP2;ratioP2;P2;SDS_P1;SDS_P2;PMS_P1;PMS_P2;Temp;Humidity;BMP_temperature;BMP_pressure;BME280_temperature;BME280_humidity;BME280_pressure;Samples;Min_cycle;Max_cycle;Signal;HPM_P1;HPM_P2
2021/12/26 00:00:29;;;;;;;77.70;40.58;;;;;;;;;;5061577;28;20100;-73
2021/12/26 00:02:57;;;;;;;77.50;38.70;;;;;;;;;;5061642;28;20307;-73
2021/12/26 00:05:25;;;;;;;83.05;41.13;;;;;;;;;;5079874;28;20032;-73
2021/12/26 00:07:51;;;;;;;80.60;41.05;;;;;;;;;;5045517;28;20434;-73
2021/12/26 00:10:20;;;;;;;82.10;38.67;;;;;;;;;;5062269;28;20024;-73
2021/12/26 00:12:47;;;;;;;73.13;35.20;;;;;;;;;;5045014;28;20027;-73
2021/12/26 00:15:13;;;;;;;66.82;35.03;;;;;;;;;;5045579;28;20028;-73
2021/12/26 00:17:39;;;;;;;61.72;34.65;;;;;;;;;;5062697;28;20043;-74
2021/12/26 00:20:06;;;;;;;79.20;33.83;;;;;;;;;;5080083;28;20334;-74
2021/12/26 00:22:33;;;;;;;74.10;34.75;;;;;;;;;;5080636;28;20339;-73
2021/12/26 00:24:59;;;;;;;71.30;33.85;;;;;;;;;;5061934;28;20056;-73
2021/12/26 00:27:26;;;;;;;62.67;32.75;;;;;;;;;;5044962;28;20020;-73
2021/12/26 00:29:52;;;;;;;65.65;34.22;;;;;;;;;;5061351;28;20058;-73
2021/12/26 00:32:18;;;;;;;70.55;35.20;;;;;;;;;;5078795;28;20024;-73
2021/12/26 00:34:45;;;;;;;77.97;36.60;;;;;;;;;;5061153;28;20027;-73
2021/12/26 00:37:12;;;;;;;77.65;35.75;;;;;;;;;;5061376;28;20027;-73
2021/12/26 00:39:38;;;;;;;75.85;35.88;;;;;;;;;;5044348;28;20119;-73
2021/12/26 00:42:04;;;;;;;78.78;35.92;;;;;;;;;;5044016;28;20354;-73
2021/12/26 00:44:32;;;;;;;72.78;34.33;;;;;;;;;;5060992;28;20024;-73
2021/12/26 00:46:58;;;;;;;66.07;31.80;;;;;;;;;;5044938;28;20020;-73
2021/12/26 00:49:24;;;;;;;68.90;34.17;;;;;;;;;;5061530;28;20035;-73
2021/12/26 00:51:50;;;;;;;73.28;38.63;;;;;;;;;;5061374;28;20024;-73
2021/12/26 00:54:20;;;;;;;78.28;39.20;;;;;;;;;;5078602;28;20020;-73
2021/12/26 00:56:46;;;;;;;76.35;40.70;;;;;;;;;;5060541;28;20065;-73
2021/12/26 00:59:13;;;;;;;87.65;44.80;;;;;;;;;;5078266;28;20338;-73
2021/12/26 01:01:39;;;;;;;76.28;34.95;;;;;;;;;;5079158;28;20497;-73
2021/12/26 01:04:06;;;;;;;71.85;35.38;;;;;;;;;;5078897;28;20077;-73
2021/12/26 01:06:33;;;;;;;71.60;34.13;;;;;;;;;;5043765;28;20107;-73
2021/12/26 01:09:01;;;;;;;70.20;35.45;;;;;;;;;;5060347;28;20028;-73
2021/12/26 01:11:46;;;;;;;75.35;34.55;;;;;;;;;;5061367;28;20019;-73
2021/12/26 01:14:13;;;;;;;70.88;32.13;;;;;;;;;;5061597;28;20020;-73
2021/12/26 01:16:39;;;;;;;76.10;34.22;;;;;;;;;;5061472;28;20016;-73
2021/12/26 01:19:12;;;;;;;78.20;37.65;;;;;;;;;;5044103;28;20028;-73
2021/12/26 01:21:39;;;;;;;82.53;39.35;;;;;;;;;;5044325;28;20490;-73
2021/12/26 01:24:07;;;;;;;75.28;39.33;;;;;;;;;;5060398;28;20056;-74
2021/12/26 01:26:33;;;;;;;76.47;40.50;;;;;;;;;;5077292;28;20055;-74
2021/12/26 01:29:00;;;;;;;91.93;39.40;;;;;;;;;;5085113;22;20064;-74
2021/12/26 01:31:26;;;;;;;92.05;45.75;;;;;;;;;;5042933;28;20040;-75
2021/12/26 01:33:55;;;;;;;79.20;39.05;;;;;;;;;;5078104;28;20066;-73
2021/12/26 01:36:21;;;;;;;71.25;38.47;;;;;;;;;;5043343;28;20150;-74
2021/12/26 01:38:48;;;;;;;65.47;34.25;;;;;;;;;;5043957;28;20020;-75
2021/12/26 01:41:16;;;;;;;70.35;35.60;;;;;;;;;;5059459;28;20055;-74
2021/12/26 01:43:45;;;;;;;67.82;36.78;;;;;;;;;;5060735;28;20028;-74
2021/12/26 01:46:12;;;;;;;67.60;38.97;;;;;;;;;;5059662;28;20023;-74
2021/12/26 01:48:38;;;;;;;66.82;37.15;;;;;;;;;;5059400;28;20044;-73
2021/12/26 01:51:05;;;;;;;66.35;38.03;;;;;;;;;;5077490;28;20024;-74
2021/12/26 01:53:38;;;;;;;67.75;33.95;;;;;;;;;;5042899;28;20025;-74
2021/12/26 01:56:07;;;;;;;78.88;41.03;;;;;;;;;;5043176;28;20044;-74
2021/12/26 01:58:33;;;;;;;70.63;34.13;;;;;;;;;;5060100;28;20027;-73
2021/12/26 02:01:01;;;;;;;71.85;34.80;;;;;;;;;;5059451;28;20346;-72
2021/12/26 02:03:27;;;;;;;71.72;35.67;;;;;;;;;;5059919;28;20073;-73
2021/12/26 02:05:53;;;;;;;75.30;35.13;;;;;;;;;;5059356;28;20430;-74
2021/12/26 02:08:21;;;;;;;61.88;32.33;;;;;;;;;;5078235;28;20025;-73
2021/12/26 02:10:47;;;;;;;77.85;41.90;;;;;;;;;;5059804;28;20371;-74
2021/12/26 02:13:14;;;;;;;92.35;45.40;;;;;;;;;;5077121;28;20012;-75
2021/12/26 02:15:40;;;;;;;91.13;45.00;;;;;;;;;;5077365;28;20107;-74
2021/12/26 02:18:07;;;;;;;87.97;44.10;;;;;;;;;;5059741;28;20020;-73
2021/12/26 02:23:31;;;;;;;108.43;57.65;;;;;;;;;;5059606;28;20039;-74
2021/12/26 02:28:25;;;;;;;122.68;61.13;;;;;;;;;;5064520;28;20032;-74
2021/12/26 02:30:53;;;;;;;121.85;59.42;;;;;;;;;;5047102;28;20335;-74
2021/12/26 02:33:20;;;;;;;128.63;60.58;;;;;;;;;;5063927;28;20017;-73
2021/12/26 02:35:48;;;;;;;139.95;61.40;;;;;;;;;;5046936;28;20043;-73
2021/12/26 02:38:14;;;;;;;114.93;59.60;;;;;;;;;;5063876;28;20024;-73
2021/12/26 02:40:42;;;;;;;115.57;56.17;;;;;;;;;;5063033;28;20030;-73
2021/12/26 02:43:08;;;;;;;118.63;62.13;;;;;;;;;;5063235;28;20028;-74
2021/12/26 02:45:36;;;;;;;123.10;55.25;;;;;;;;;;5047407;28;20016;-74
2021/12/26 02:48:02;;;;;;;118.10;55.60;;;;;;;;;;5063179;28;20016;-73
2021/12/26 02:50:30;;;;;;;107.80;50.88;;;;;;;;;;5080390;28;20020;-74
2021/12/26 02:52:58;;;;;;;100.97;51.70;;;;;;;;;;5047275;28;20070;-73
2021/12/26 02:55:26;;;;;;;99.82;50.22;;;;;;;;;;5063620;28;20396;-74
2021/12/26 02:57:57;;;;;;;81.45;41.35;;;;;;;;;;5081451;28;20331;-75
2021/12/26 03:00:23;;;;;;;;;;;;;;;;;;5046274;28;20023;-73
2021/12/26 03:02:52;;;;;;;97.28;49.30;;;;;;;;;;5045944;28;20262;-73
2021/12/26 03:05:19;;;;;;;94.60;47.50;;;;;;;;;;5062152;28;20052;-74
2021/12/26 03:07:45;;;;;;;88.88;46.55;;;;;;;;;;5046365;28;20062;-74
2021/12/26 03:10:20;;;;;;;93.10;43.05;;;;;;;;;;5046567;28;20070;-74
2021/12/26 03:12:47;;;;;;;89.75;45.40;;;;;;;;;;5062846;28;20055;-75
2021/12/26 03:15:13;;;;;;;92.53;52.72;;;;;;;;;;5079470;28;20448;-74
2021/12/26 03:17:41;;;;;;;86.07;49.60;;;;;;;;;;5062129;28;20016;-74
2021/12/26 03:20:08;;;;;;;83.13;44.08;;;;;;;;;;5080653;28;20422;-74
2021/12/26 03:22:34;;;;;;;79.07;41.45;;;;;;;;;;5062328;28;20044;-75
2021/12/26 03:25:00;;;;;;;78.35;46.72;;;;;;;;;;5045945;28;20418;-74
2021/12/26 03:27:28;;;;;;;77.13;41.13;;;;;;;;;;5045637;28;20089;-74
2021/12/26 03:29:54;;;;;;;87.40;42.55;;;;;;;;;;5062090;28;20368;-74
2021/12/26 03:32:23;;;;;;;83.40;40.53;;;;;;;;;;5062399;28;20020;-75
2021/12/26 03:34:50;;;;;;;87.45;51.88;;;;;;;;;;5062507;28;20082;-75
2021/12/26 03:37:16;;;;;;;67.68;36.25;;;;;;;;;;5078895;28;20024;-74
2021/12/26 03:39:43;;;;;;;80.93;39.72;;;;;;;;;;5062527;28;20016;-73
2021/12/26 03:42:09;;;;;;;77.15;41.13;;;;;;;;;;5044415;28;20043;-73
2021/12/26 03:44:36;;;;;;;81.22;41.78;;;;;;;;;;5060948;28;20017;-74
2021/12/26 03:47:02;;;;;;;74.30;38.30;;;;;;;;;;5045114;28;20409;-73
2021/12/26 03:49:28;;;;;;;83.30;36.78;;;;;;;;;;5045132;28;20123;-74
2021/12/26 03:51:54;;;;;;;91.32;47.42;;;;;;;;;;5061730;28;20024;-74
2021/12/26 03:54:21;;;;;;;84.95;39.05;;;;;;;;;;5045634;28;20071;-74
2021/12/26 03:56:47;;;;;;;89.88;44.58;;;;;;;;;;5062998;28;20021;-75
2021/12/26 03:59:15;;;;;;;91.88;41.63;;;;;;;;;;5062896;28;20025;-75
2021/12/26 04:01:41;;;;;;;84.18;41.42;;;;;;;;;;5087348;22;20048;-75
2021/12/26 04:04:07;;;;;;;96.80;42.10;;;;;;;;;;5078433;28;20104;-74
2021/12/26 04:06:34;;;;;;;91.90;46.63;;;;;;;;;;5079900;28;20028;-74
2021/12/26 04:09:00;;;;;;;89.88;42.30;;;;;;;;;;5045756;28;20040;-74
2021/12/26 04:11:26;;;;;;;76.25;39.35;;;;;;;;;;5079939;28;20055;-74
2021/12/26 04:13:53;;;;;;;95.82;46.40;;;;;;;;;;5079030;28;20434;-74
2021/12/26 04:16:19;;;;;;;83.30;37.53;;;;;;;;;;5060628;28;20445;-73
2021/12/26 04:18:46;;;;;;;81.88;39.50;;;;;;;;;;5043971;28;20074;-76
2021/12/26 04:21:15;;;;;;;82.65;36.75;;;;;;;;;;5061119;28;20043;-72
2021/12/26 04:23:41;;;;;;;81.25;37.97;;;;;;;;;;5044770;28;20406;-75
2021/12/26 04:26:08;;;;;;;72.65;37.80;;;;;;;;;;5060459;28;20350;-74
2021/12/26 04:28:34;;;;;;;83.85;37.45;;;;;;;;;;5044740;28;20020;-73
2021/12/26 04:31:01;;;;;;;82.97;41.03;;;;;;;;;;5044002;28;20020;-74
2021/12/26 04:33:27;;;;;;;89.70;41.72;;;;;;;;;;5078294;28;20124;-74
2021/12/26 04:35:53;;;;;;;76.22;38.85;;;;;;;;;;5059951;28;20111;-74
2021/12/26 04:38:20;;;;;;;84.75;40.75;;;;;;;;;;5078735;28;20021;-75
2021/12/26 04:40:51;;;;;;;84.53;37.80;;;;;;;;;;5060844;28;20083;-74
2021/12/26 04:43:23;;;;;;;75.18;33.60;;;;;;;;;;5043369;28;20040;-73
2021/12/26 04:45:49;;;;;;;86.13;41.45;;;;;;;;;;5077640;28;20025;-74
2021/12/26 04:48:15;;;;;;;88.95;39.85;;;;;;;;;;5042979;28;20024;-73
2021/12/26 04:50:42;;;;;;;93.45;41.22;;;;;;;;;;5043261;28;20119;-73
2021/12/26 04:53:08;;;;;;;89.50;42.90;;;;;;;;;;5060672;28;20020;-74
2021/12/26 04:55:35;;;;;;;90.05;41.17;;;;;;;;;;5061306;28;20032;-75
2021/12/26 04:58:04;;;;;;;84.50;41.80;;;;;;;;;;5044453;28;20047;-74
2021/12/26 05:00:31;;;;;;;79.25;36.78;;;;;;;;;;5043575;28;20020;-73
2021/12/26 05:02:58;;;;;;;86.97;35.95;;;;;;;;;;5043508;28;20028;-74
2021/12/26 05:05:28;;;;;;;73.47;38.47;;;;;;;;;;5060302;28;20109;-73
2021/12/26 05:07:54;;;;;;;81.28;40.72;;;;;;;;;;5077953;28;20434;-75
2021/12/26 05:10:21;;;;;;;95.30;41.20;;;;;;;;;;5044325;28;20103;-74
2021/12/26 05:12:47;;;;;;;86.85;41.00;;;;;;;;;;5061244;28;20330;-73
2021/12/26 05:15:16;;;;;;;99.70;49.17;;;;;;;;;;5061569;28;20023;-73
2021/12/26 05:17:42;;;;;;;89.78;45.63;;;;;;;;;;5043738;28;20048;-73
2021/12/26 05:20:10;;;;;;;90.22;41.67;;;;;;;;;;5060018;28;20384;-74
2021/12/26 05:22:37;;;;;;;92.85;40.67;;;;;;;;;;5043905;28;20090;-73
2021/12/26 05:25:06;;;;;;;92.78;43.45;;;;;;;;;;5043713;28;20017;-74
2021/12/26 05:27:33;;;;;;;83.20;40.80;;;;;;;;;;5059565;28;20016;-75
2021/12/26 05:29:59;;;;;;;94.53;41.22;;;;;;;;;;5060163;28;20034;-73
2021/12/26 05:32:25;;;;;;;89.95;43.60;;;;;;;;;;5043078;28;20060;-73
2021/12/26 05:34:51;;;;;;;88.18;39.58;;;;;;;;;;5059914;28;20025;-73
2021/12/26 05:37:18;;;;;;;79.85;39.55;;;;;;;;;;5059983;28;20027;-74
2021/12/26 05:39:45;;;;;;;95.93;41.40;;;;;;;;;;5042669;28;20055;-74
2021/12/26 05:42:15;;;;;;;95.40;43.80;;;;;;;;;;5059452;28;20044;-73
2021/12/26 05:44:45;;;;;;;88.25;45.05;;;;;;;;;;5042940;28;20016;-75
2021/12/26 05:47:12;;;;;;;80.07;39.60;;;;;;;;;;5059146;28;20066;-73
2021/12/26 05:49:38;;;;;;;100.68;46.15;;;;;;;;;;5077858;28;20024;-75
2021/12/26 05:52:05;;;;;;;100.45;47.38;;;;;;;;;;5043446;28;20020;-74
2021/12/26 05:54:32;;;;;;;82.60;40.92;;;;;;;;;;5042378;28;20055;-75
2021/12/26 05:56:58;;;;;;;80.43;40.35;;;;;;;;;;5042649;28;20071;-74
2021/12/26 05:59:24;;;;;;;73.30;37.03;;;;;;;;;;5059949;28;20365;-74
2021/12/26 06:01:51;;;;;;;79.55;40.40;;;;;;;;;;5062704;28;20094;-73
2021/12/26 06:04:16;;;;;;;78.10;37.95;;;;;;;;;;5081936;28;20029;-73
2021/12/26 06:06:46;;;;;;;89.15;44.10;;;;;;;;;;5064587;28;20051;-73
2021/12/26 06:09:12;;;;;;;95.63;44.13;;;;;;;;;;5081741;28;20441;-74
2021/12/26 06:11:38;;;;;;;102.65;42.50;;;;;;;;;;5063050;28;20426;-74
2021/12/26 06:14:04;;;;;;;91.68;42.65;;;;;;;;;;5080800;28;20373;-74
2021/12/26 06:16:30;;;;;;;79.32;38.60;;;;;;;;;;5063313;28;20103;-74
2021/12/26 06:18:57;;;;;;;88.57;42.92;;;;;;;;;;5063241;28;20335;-75
2021/12/26 06:21:23;;;;;;;73.97;36.22;;;;;;;;;;5062068;28;20035;-74
2021/12/26 06:23:52;;;;;;;73.10;37.95;;;;;;;;;;5080723;28;20081;-75
2021/12/26 06:26:23;;;;;;;80.90;40.22;;;;;;;;;;5063125;28;20048;-73
2021/12/26 06:28:49;;;;;;;81.18;38.45;;;;;;;;;;5080242;28;20333;-74
2021/12/26 06:31:16;;;;;;;91.55;42.55;;;;;;;;;;5066369;22;20521;-75
2021/12/26 06:33:46;;;;;;;86.35;41.25;;;;;;;;;;5042420;28;20099;-74
2021/12/26 06:36:13;;;;;;;85.20;39.72;;;;;;;;;;5061073;28;20019;-74
2021/12/26 06:38:40;;;;;;;85.63;38.28;;;;;;;;;;5060407;28;20017;-75
2021/12/26 06:41:08;;;;;;;92.30;43.53;;;;;;;;;;5042848;28;20039;-74
2021/12/26 06:43:35;;;;;;;86.68;40.53;;;;;;;;;;5043409;28;20021;-75
2021/12/26 06:46:01;;;;;;;86.03;40.88;;;;;;;;;;5060074;28;20108;-75
2021/12/26 06:48:27;;;;;;;91.22;37.83;;;;;;;;;;5042220;28;20028;-73
2021/12/26 06:50:54;;;;;;;78.95;37.10;;;;;;;;;;5042187;28;20026;-74
2021/12/26 06:53:20;;;;;;;84.50;39.03;;;;;;;;;;5025657;28;20330;-75
2021/12/26 06:55:47;;;;;;;78.68;39.90;;;;;;;;;;5042415;28;20021;-73
2021/12/26 06:58:13;;;;;;;82.25;39.17;;;;;;;;;;5042016;28;20335;-74
2021/12/26 07:00:41;;;;;;;75.15;39.33;;;;;;;;;;5025937;28;20025;-75
2021/12/26 07:03:09;;;;;;;88.40;44.35;;;;;;;;;;5042002;28;20148;-74
2021/12/26 07:05:36;;;;;;;85.97;42.42;;;;;;;;;;5060280;28;20029;-73
2021/12/26 07:08:02;;;;;;;76.20;41.28;;;;;;;;;;5042368;28;20032;-74
2021/12/26 07:10:28;;;;;;;98.95;43.03;;;;;;;;;;5059293;28;20369;-75
2021/12/26 07:12:54;;;;;;;85.07;41.13;;;;;;;;;;5044375;28;20025;-73
2021/12/26 07:15:21;;;;;;;88.07;40.97;;;;;;;;;;5043459;28;20027;-75
2021/12/26 07:17:47;;;;;;;91.35;43.65;;;;;;;;;;5026264;28;20028;-73
2021/12/26 07:20:15;;;;;;;98.60;44.13;;;;;;;;;;5042087;28;20423;-74
2021/12/26 07:22:43;;;;;;;79.80;38.38;;;;;;;;;;5042775;28;20373;-73
2021/12/26 07:25:09;;;;;;;93.75;41.05;;;;;;;;;;5060018;28;20045;-74
2021/12/26 07:27:35;;;;;;;77.30;34.95;;;;;;;;;;5059814;28;20021;-75
2021/12/26 07:30:03;;;;;;;86.30;41.47;;;;;;;;;;5026466;28;20027;-73
2021/12/26 07:32:30;;;;;;;82.70;40.78;;;;;;;;;;5025103;28;20036;-74
2021/12/26 07:34:57;;;;;;;80.10;39.97;;;;;;;;;;5041557;28;20103;-74
2021/12/26 07:37:25;;;;;;;88.57;38.28;;;;;;;;;;5026072;28;20021;-74
2021/12/26 07:39:50;;;;;;;78.78;38.33;;;;;;;;;;5041430;28;20048;-74
2021/12/26 07:42:16;;;;;;;81.88;38.22;;;;;;;;;;5041767;28;20060;-73
2021/12/26 07:44:42;;;;;;;93.05;38.72;;;;;;;;;;5024925;28;20025;-73
2021/12/26 07:47:08;;;;;;;83.32;39.35;;;;;;;;;;5059403;28;20029;-73
2021/12/26 07:49:35;;;;;;;79.00;35.83;;;;;;;;;;5041283;28;20070;-74
2021/12/26 07:52:02;;;;;;;82.18;35.80;;;;;;;;;;5058768;28;20068;-73
2021/12/26 07:54:29;;;;;;;77.70;37.53;;;;;;;;;;5041741;28;20107;-73
2021/12/26 07:56:58;;;;;;;79.65;33.95;;;;;;;;;;5025330;28;20476;-73
2021/12/26 07:59:24;;;;;;;74.07;33.47;;;;;;;;;;5041563;28;20080;-73
2021/12/26 08:01:50;;;;;;;76.68;34.40;;;;;;;;;;5025284;28;20035;-73
2021/12/26 08:04:17;;;;;;;73.65;33.83;;;;;;;;;;5040639;28;20096;-74
2021/12/26 08:06:43;;;;;;;85.85;38.35;;;;;;;;;;5025653;28;20025;-74
2021/12/26 08:09:09;;;;;;;84.70;36.53;;;;;;;;;;5059800;28;20020;-74
2021/12/26 08:11:36;;;;;;;78.65;35.95;;;;;;;;;;5041527;28;20119;-73
2021/12/26 08:14:02;;;;;;;79.05;34.85;;;;;;;;;;5025504;28;20063;-74
2021/12/26 08:16:29;;;;;;;84.90;33.08;;;;;;;;;;5026262;28;20021;-73
2021/12/26 08:18:56;;;;;;;89.20;38.83;;;;;;;;;;5025784;28;20024;-73
2021/12/26 08:21:22;;;;;;;72.65;33.03;;;;;;;;;;5025446;28;20054;-74
2021/12/26 08:23:48;;;;;;;72.38;33.00;;;;;;;;;;5057866;28;20071;-73
2021/12/26 08:26:14;;;;;;;77.18;34.28;;;;;;;;;;5040176;28;20052;-73
2021/12/26 08:28:40;;;;;;;64.95;30.92;;;;;;;;;;5041384;28;20048;-73
2021/12/26 08:31:07;;;;;;;50.03;23.75;;;;;;;;;;5025084;28;20036;-75
2021/12/26 08:33:33;;;;;;;40.50;20.75;;;;;;;;;;5024609;28;20479;-73
2021/12/26 08:36:00;;;;;;;55.92;26.95;;;;;;;;;;5041564;28;20020;-74
2021/12/26 08:38:26;;;;;;;45.38;23.70;;;;;;;;;;5024482;28;20024;-73
2021/12/26 08:40:54;;;;;;;54.58;22.80;;;;;;;;;;5040514;28;20354;-73
2021/12/26 08:43:21;;;;;;;52.60;23.50;;;;;;;;;;5040229;28;20075;-73
2021/12/26 08:45:48;;;;;;;50.75;25.35;;;;;;;;;;5025215;28;20071;-74
2021/12/26 08:48:14;;;;;;;63.22;27.08;;;;;;;;;;5042053;28;20024;-73
2021/12/26 08:50:40;;;;;;;55.08;28.35;;;;;;;;;;5040755;28;20037;-74
2021/12/26 08:53:08;;;;;;;62.05;30.13;;;;;;;;;;5040646;28;20415;-73
2021/12/26 08:55:34;;;;;;;64.82;30.70;;;;;;;;;;5023620;28;20025;-74
2021/12/26 08:58:00;;;;;;;53.70;27.45;;;;;;;;;;5041435;28;20021;-74
2021/12/26 09:00:27;;;;;;;59.88;25.55;;;;;;;;;;5040975;28;20021;-73
2021/12/26 09:02:53;;;;;;;62.28;26.33;;;;;;;;;;5058436;28;20127;-74
2021/12/26 09:05:20;;;;;;;69.88;31.27;;;;;;;;;;5040959;28;20021;-74
2021/12/26 09:07:46;;;;;;;66.53;30.40;;;;;;;;;;5022976;28;20027;-74
2021/12/26 09:10:12;;;;;;;64.35;29.27;;;;;;;;;;5041184;28;20046;-73
2021/12/26 09:12:39;;;;;;;53.42;28.52;;;;;;;;;;5040095;28;20024;-74
2021/12/26 09:15:06;;;;;;;57.63;25.20;;;;;;;;;;5059163;28;20017;-73
2021/12/26 09:17:33;;;;;;;57.80;25.63;;;;;;;;;;5026259;28;20021;-74
2021/12/26 09:19:59;;;;;;;60.90;28.88;;;;;;;;;;5041297;28;20062;-73
2021/12/26 09:22:25;;;;;;;69.25;34.20;;;;;;;;;;5058230;28;20339;-74
2021/12/26 09:24:52;;;;;;;72.03;34.60;;;;;;;;;;5039471;28;20099;-74
2021/12/26 09:27:20;;;;;;;81.50;38.25;;;;;;;;;;5040223;28;20029;-74
2021/12/26 09:29:48;;;;;;;80.70;42.13;;;;;;;;;;5025009;28;20017;-74
2021/12/26 09:32:14;;;;;;;100.07;45.60;;;;;;;;;;5057045;28;20123;-74
2021/12/26 09:34:40;;;;;;;93.80;43.35;;;;;;;;;;5063075;28;20029;-74
2021/12/26 09:37:09;;;;;;;82.97;46.20;;;;;;;;;;5027578;28;20055;-73
2021/12/26 09:39:36;;;;;;;89.63;45.83;;;;;;;;;;5044493;28;20074;-73
2021/12/26 09:42:03;;;;;;;97.60;45.85;;;;;;;;;;5043659;28;20459;-73
2021/12/26 09:44:29;;;;;;;101.10;47.35;;;;;;;;;;5044832;28;20028;-74
2021/12/26 09:46:55;;;;;;;102.85;48.25;;;;;;;;;;5028935;28;20048;-73
2021/12/26 09:49:23;;;;;;;96.78;47.63;;;;;;;;;;5028601;28;20017;-73
2021/12/26 09:51:50;;;;;;;94.75;46.70;;;;;;;;;;5044019;28;20025;-73
2021/12/26 09:54:17;;;;;;;104.85;51.35;;;;;;;;;;5062344;28;20374;-74
2021/12/26 09:56:43;;;;;;;107.68;52.92;;;;;;;;;;5045414;28;20438;-74
2021/12/26 09:59:17;;;;;;;123.63;55.58;;;;;;;;;;5061473;28;20032;-74
2021/12/26 10:01:48;;;;;;;124.18;55.58;;;;;;;;;;5042532;28;20032;-74
2021/12/26 10:04:14;;;;;;;;;;;;;;;;;;5061404;28;20020;-74
2021/12/26 10:06:40;;;;;;;116.75;56.33;;;;;;;;;;5026762;28;19930;-74
2021/12/26 10:09:10;;;;;;;106.55;52.10;;;;;;;;;;5061746;28;20075;-75
2021/12/26 10:11:42;;;;;;;128.73;54.80;;;;;;;;;;5026564;28;20021;-74
2021/12/26 10:14:11;;;;;;;118.18;56.42;;;;;;;;;;5043003;28;20025;-73
2021/12/26 10:16:43;;;;;;;115.10;53.97;;;;;;;;;;5043190;28;20017;-74
2021/12/26 10:19:10;;;;;;;125.60;61.28;;;;;;;;;;5061465;28;20017;-74
2021/12/26 10:21:41;;;;;;;136.30;62.17;;;;;;;;;;5043143;28;20028;-74
2021/12/26 10:24:12;;;;;;;130.30;64.05;;;;;;;;;;5044334;28;20443;-73
2021/12/26 10:26:40;;;;;;;125.40;62.47;;;;;;;;;;5060625;28;20024;-73
2021/12/26 10:29:07;;;;;;;116.57;58.85;;;;;;;;;;5042735;28;20045;-73
2021/12/26 10:31:34;;;;;;;119.88;65.03;;;;;;;;;;5060775;28;20036;-74
2021/12/26 10:34:00;;;;;;;132.70;63.85;;;;;;;;;;5026104;28;20021;-74
2021/12/26 10:36:29;;;;;;;136.95;67.40;;;;;;;;;;5061181;28;20021;-74
2021/12/26 10:39:12;;;;;;;128.05;69.82;;;;;;;;;;5026870;28;20016;-74
2021/12/26 10:41:46;;;;;;;120.22;60.38;;;;;;;;;;5026530;28;20041;-75
2021/12/26 10:44:20;;;;;;;103.03;57.33;;;;;;;;;;5027163;28;20051;-74
2021/12/26 10:46:47;;;;;;;121.82;60.53;;;;;;;;;;5026146;28;20040;-73
2021/12/26 10:49:34;;;;;;;110.25;57.65;;;;;;;;;;5043135;28;20032;-75
2021/12/26 10:52:01;;;;;;;114.38;57.05;;;;;;;;;;5043143;28;20021;-74
2021/12/26 10:54:31;;;;;;;106.65;55.47;;;;;;;;;;5042458;28;20021;-74
2021/12/26 10:57:04;;;;;;;116.78;58.28;;;;;;;;;;5059547;28;20025;-73
2021/12/26 10:59:31;;;;;;;110.90;54.80;;;;;;;;;;5033529;23;20199;-74
2021/12/26 11:01:57;;;;;;;111.63;50.13;;;;;;;;;;5059888;28;20033;-73
2021/12/26 11:04:24;;;;;;;95.95;49.55;;;;;;;;;;5060863;28;20053;-73
2021/12/26 11:07:04;;;;;;;110.10;57.10;;;;;;;;;;5042554;28;20013;-74
2021/12/26 11:09:30;;;;;;;114.00;59.28;;;;;;;;;;5059737;28;20013;-74
2021/12/26 11:12:01;;;;;;;108.07;54.72;;;;;;;;;;5042526;28;20025;-73
2021/12/26 11:14:27;;;;;;;107.82;51.35;;;;;;;;;;5060407;28;20319;-73
2021/12/26 11:16:53;;;;;;;97.40;48.15;;;;;;;;;;5041919;28;20024;-73
2021/12/26 11:19:38;;;;;;;101.32;51.92;;;;;;;;;;5041685;28;20070;-73
2021/12/26 11:22:04;;;;;;;127.00;62.90;;;;;;;;;;5025988;28;20052;-73
2021/12/26 11:24:30;;;;;;;123.57;61.15;;;;;;;;;;5060946;28;20071;-73
2021/12/26 11:26:56;;;;;;;136.10;68.90;;;;;;;;;;5059123;28;20111;-73
2021/12/26 11:29:25;;;;;;;132.48;69.63;;;;;;;;;;5060136;28;20052;-73
2021/12/26 11:31:53;;;;;;;147.38;73.55;;;;;;;;;;5041756;28;20343;-73
2021/12/26 11:34:19;;;;;;;145.25;68.10;;;;;;;;;;5025215;28;20021;-73
2021/12/26 11:36:45;;;;;;;148.00;74.45;;;;;;;;;;5042097;28;20028;-74
2021/12/26 11:39:12;;;;;;;153.35;78.63;;;;;;;;;;5058670;28;20431;-74
2021/12/26 11:41:38;;;;;;;167.27;89.53;;;;;;;;;;5059233;28;20033;-74
2021/12/26 11:44:23;;;;;;;174.18;92.45;;;;;;;;;;5060470;28;20120;-73
2021/12/26 11:46:48;;;;;;;151.80;83.53;;;;;;;;;;5024925;28;20021;-73
2021/12/26 11:49:43;;;;;;;150.40;80.07;;;;;;;;;;5042332;28;20422;-73
2021/12/26 11:52:27;;;;;;;149.00;77.15;;;;;;;;;;5059064;28;20017;-73
2021/12/26 11:55:17;;;;;;;160.82;76.90;;;;;;;;;;5041904;28;20024;-74
2021/12/26 11:57:51;;;;;;;154.25;76.32;;;;;;;;;;5058480;28;20335;-74
2021/12/26 12:00:19;;;;;;;143.52;73.78;;;;;;;;;;5042730;28;20029;-74
2021/12/26 12:02:53;;;;;;;151.10;71.68;;;;;;;;;;5040881;28;20312;-73
2021/12/26 12:05:23;;;;;;;144.05;73.75;;;;;;;;;;5059355;28;20150;-73
2021/12/26 12:07:49;;;;;;;;;;;;;;;;;;5024832;28;20021;-73
2021/12/26 12:10:34;;;;;;;168.40;78.20;;;;;;;;;;5024955;28;20203;-73
2021/12/26 12:13:00;;;;;;;180.40;88.93;;;;;;;;;;5058910;28;20029;-73
2021/12/26 12:15:44;;;;;;;181.45;88.53;;;;;;;;;;5058246;28;20017;-73
2021/12/26 12:18:33;;;;;;;181.00;94.40;;;;;;;;;;5041000;28;20047;-73
2021/12/26 12:21:13;;;;;;;183.93;87.88;;;;;;;;;;5028611;28;20041;-73
2021/12/26 12:23:58;;;;;;;195.23;87.85;;;;;;;;;;5024301;28;20028;-73
2021/12/26 12:26:38;;;;;;;195.82;95.30;;;;;;;;;;5024993;28;20024;-73
2021/12/26 12:29:05;;;;;;;178.63;92.70;;;;;;;;;;5025222;28;20025;-73
2021/12/26 12:31:35;;;;;;;192.63;95.32;;;;;;;;;;5025392;28;20024;-74
2021/12/26 12:34:06;;;;;;;188.23;90.60;;;;;;;;;;5040433;28;20478;-73
2021/12/26 12:36:34;;;;;;;177.13;87.28;;;;;;;;;;5057839;28;20027;-73
2021/12/26 12:39:20;;;;;;;190.43;94.45;;;;;;;;;;5058286;28;20017;-73
2021/12/26 12:41:47;;;;;;;208.23;99.97;;;;;;;;;;5023996;28;20435;-73
2021/12/26 12:44:28;;;;;;;208.23;110.40;;;;;;;;;;5025011;28;20020;-73
2021/12/26 12:46:54;;;;;;;;;;;;;;;;;;5041877;28;20028;-74
2021/12/26 12:49:39;;;;;;;238.10;119.68;;;;;;;;;;5059962;28;19905;-73
2021/12/26 12:52:06;;;;;;;226.00;123.15;;;;;;;;;;5057995;28;20029;-73
2021/12/26 12:54:32;;;;;;;245.95;127.82;;;;;;;;;;5024669;28;20102;-74
2021/12/26 12:57:03;;;;;;;230.20;126.00;;;;;;;;;;5024557;28;20024;-74
2021/12/26 12:59:32;;;;;;;265.02;142.38;;;;;;;;;;5023648;28;20029;-75
2021/12/26 13:02:00;;;;;;;259.67;136.88;;;;;;;;;;5040083;28;20037;-74
2021/12/26 13:04:27;;;;;;;249.20;131.13;;;;;;;;;;5039238;28;20016;-74
2021/12/26 13:07:01;;;;;;;252.02;133.15;;;;;;;;;;5058138;28;20028;-74
2021/12/26 13:09:28;;;;;;;246.20;127.25;;;;;;;;;;5023726;28;20028;-73
2021/12/26 13:11:58;;;;;;;258.67;133.75;;;;;;;;;;5024000;28;20025;-73
2021/12/26 13:14:38;;;;;;;250.57;132.18;;;;;;;;;;5039921;28;20112;-74
2021/12/26 13:17:10;;;;;;;278.10;150.52;;;;;;;;;;5040144;28;20025;-74
2021/12/26 13:19:36;;;;;;;322.52;160.73;;;;;;;;;;5058192;28;20074;-73
2021/12/26 13:22:04;;;;;;;301.95;154.20;;;;;;;;;;5024938;28;20033;-74
2021/12/26 13:24:32;;;;;;;300.33;154.40;;;;;;;;;;5023557;28;20021;-73
2021/12/26 13:27:01;;;;;;;309.88;170.18;;;;;;;;;;5024258;28;20047;-74
2021/12/26 13:29:27;;;;;;;319.38;163.85;;;;;;;;;;5023918;28;20074;-73
2021/12/26 13:31:53;;;;;;;317.88;163.65;;;;;;;;;;5040589;28;20028;-73
2021/12/26 13:34:19;;;;;;;290.20;152.38;;;;;;;;;;5059875;28;20025;-74
2021/12/26 13:36:45;;;;;;;297.15;152.80;;;;;;;;;;5039590;28;20174;-73
2021/12/26 13:39:23;;;;;;;312.88;158.02;;;;;;;;;;5040041;28;20056;-73
2021/12/26 13:41:50;;;;;;;283.30;148.05;;;;;;;;;;5057157;28;20033;-73
2021/12/26 13:44:17;;;;;;;267.25;142.23;;;;;;;;;;5023498;28;20021;-73
2021/12/26 13:46:43;;;;;;;269.77;135.57;;;;;;;;;;5058062;28;20045;-73
2021/12/26 13:49:12;;;;;;;272.90;137.57;;;;;;;;;;5041001;28;20379;-73
2021/12/26 13:51:44;;;;;;;241.75;133.27;;;;;;;;;;5058269;28;20017;-74
2021/12/26 13:54:15;;;;;;;254.63;133.75;;;;;;;;;;5057716;28;20078;-73
2021/12/26 13:56:50;;;;;;;237.75;125.18;;;;;;;;;;5039805;28;20021;-73
2021/12/26 13:59:34;;;;;;;228.30;127.05;;;;;;;;;;5039763;28;20127;-73
2021/12/26 14:02:05;;;;;;;248.95;130.55;;;;;;;;;;5023835;28;20374;-73
2021/12/26 14:04:31;;;;;;;253.18;134.95;;;;;;;;;;5023976;28;20023;-73
2021/12/26 14:06:57;;;;;;;257.88;137.13;;;;;;;;;;5024181;28;20021;-74
2021/12/26 14:09:24;;;;;;;265.60;135.52;;;;;;;;;;5040856;28;20017;-74
2021/12/26 14:11:50;;;;;;;238.23;120.60;;;;;;;;;;5057844;28;20039;-74
2021/12/26 14:14:24;;;;;;;232.10;118.55;;;;;;;;;;5039037;28;20415;-74
2021/12/26 14:16:51;;;;;;;235.65;114.63;;;;;;;;;;5040195;28;20063;-74
2021/12/26 14:19:17;;;;;;;225.50;108.53;;;;;;;;;;5039495;28;20021;-74
2021/12/26 14:21:45;;;;;;;188.57;92.05;;;;;;;;;;5027158;28;20443;-74
2021/12/26 14:24:12;;;;;;;167.75;81.07;;;;;;;;;;5027956;28;20042;-74